sensor_id;sensor_type;location;lat;lon;timestamp;P1;durP1;ratioP1;P2;durP2;ratioP2
1747;SDS011;871;47.034;15.394;2023-04-02T04:05:05;30.17;;;2.90;;
1747;SDS011;871;47.034;15.394;2023-04-02T04:07:37;33.08;;;4.10;;
1747;SDS011;871;47.034;15.394;2023-04-02T04:10:05;31.83;;;3.53;;
1747;SDS011;871;47.034;15.394;2023-04-02T04:12:33;32.45;;;3.05;;
1747;SDS011;871;47.034;15.394;2023-04-02T04:15:06;33.17;;;2.97;;
1747;SDS011;871;47.034;15.394;2023-04-02T04:22:41;36.17;;;3.10;;
1747;SDS011;871;47.034;15.394;2023-04-02T04:25:17;34.67;;;3.30;;
1747;SDS011;871;47.034;15.394;2023-04-02T04:30:24;35.42;;;3.05;;
1747;SDS011;871;47.034;15.394;2023-04-02T04:32:57;37.47;;;3.43;;
1747;SDS011;871;47.034;15.394;2023-04-02T04:35:29;37.60;;;3.33;;
1747;SDS011;871;47.034;15.394;2023-04-02T04:37:57;38.00;;;3.55;;
1747;SDS011;871;47.034;15.394;2023-04-02T04:40:31;36.25;;;3.70;;
1747;SDS011;871;47.034;15.394;2023-04-02T04:43:00;35.63;;;3.40;;
1747;SDS011;871;47.034;15.394;2023-04-02T04:45:39;37.10;;;3.67;;
1747;SDS011;871;47.034;15.394;2023-04-02T04:48:28;36.27;;;3.23;;
1747;SDS011;871;47.034;15.394;2023-04-02T04:50:53;36.60;;;3.37;;
1747;SDS011;871;47.034;15.394;2023-04-02T04:53:22;37.60;;;4.03;;
1747;SDS011;871;47.034;15.394;2023-04-02T04:55:49;36.25;;;3.72;;
1747;SDS011;871;47.034;15.394;2023-04-02T04:58:26;39.37;;;3.90;;
1747;SDS011;871;47.034;15.394;2023-04-02T05:06:10;38.87;;;3.83;;
1747;SDS011;871;47.034;15.394;2023-04-02T05:08:37;38.27;;;4.10;;
1747;SDS011;871;47.034;15.394;2023-04-02T05:11:07;38.07;;;3.80;;
1747;SDS011;871;47.034;15.394;2023-04-02T05:16:12;38.10;;;3.70;;
1747;SDS011;871;47.034;15.394;2023-04-02T05:19:02;37.83;;;4.00;;
1747;SDS011;871;47.034;15.394;2023-04-02T05:21:36;38.80;;;4.20;;
1747;SDS011;871;47.034;15.394;2023-04-02T05:26:48;38.60;;;4.63;;
1747;SDS011;871;47.034;15.394;2023-04-02T05:29:49;37.17;;;3.50;;
1747;SDS011;871;47.034;15.394;2023-04-02T05:32:52;37.80;;;3.70;;
1747;SDS011;871;47.034;15.394;2023-04-02T05:34:57;40.90;;;4.03;;
1747;SDS011;871;47.034;15.394;2023-04-02T05:37:25;37.97;;;3.50;;
1747;SDS011;871;47.034;15.394;2023-04-02T05:39:53;37.70;;;3.67;;
1747;SDS011;871;47.034;15.394;2023-04-02T05:42:29;38.20;;;3.77;;
1747;SDS011;871;47.034;15.394;2023-04-02T05:47:38;38.90;;;4.40;;
1747;SDS011;871;47.034;15.394;2023-04-02T05:50:10;38.10;;;4.20;;
1747;SDS011;871;47.034;15.394;2023-04-02T05:52:41;37.90;;;3.83;;
1747;SDS011;871;47.034;15.394;2023-04-02T05:57:43;38.40;;;3.90;;
1747;SDS011;871;47.034;15.394;2023-04-02T06:00:15;38.33;;;4.37;;
1747;SDS011;871;47.034;15.394;2023-04-02T06:02:46;38.03;;;3.73;;
1747;SDS011;871;47.034;15.394;2023-04-02T06:05:21;37.53;;;3.00;;
1747;SDS011;871;47.034;15.394;2023-04-02T06:07:56;39.17;;;4.00;;
1747;SDS011;871;47.034;15.394;2023-04-02T06:10:27;38.20;;;3.67;;
1747;SDS011;871;47.034;15.394;2023-04-02T06:12:55;39.20;;;3.50;;
1747;SDS011;871;47.034;15.394;2023-04-02T06:15:26;39.97;;;4.10;;
1747;SDS011;871;47.034;15.394;2023-04-02T06:17:57;39.87;;;4.30;;
1747;SDS011;871;47.034;15.394;2023-04-02T06:20:23;38.80;;;4.50;;
1747;SDS011;871;47.034;15.394;2023-04-02T06:22:50;39.47;;;4.37;;
1747;SDS011;871;47.034;15.394;2023-04-02T06:25:26;39.50;;;4.03;;
1747;SDS011;871;47.034;15.394;2023-04-02T06:27:53;39.70;;;3.17;;
1747;SDS011;871;47.034;15.394;2023-04-02T06:30:23;38.90;;;3.33;;
1747;SDS011;871;47.034;15.394;2023-04-02T06:32:50;38.70;;;3.73;;
1747;SDS011;871;47.034;15.394;2023-04-02T06:35:17;40.00;;;3.93;;
1747;SDS011;871;47.034;15.394;2023-04-02T06:37:47;40.33;;;3.60;;
1747;SDS011;871;47.034;15.394;2023-04-02T06:42:59;39.80;;;3.80;;
1747;SDS011;871;47.034;15.394;2023-04-02T06:45:31;43.70;;;4.10;;
1747;SDS011;871;47.034;15.394;2023-04-02T06:48:00;41.07;;;4.00;;
1747;SDS011;871;47.034;15.394;2023-04-02T06:53:19;40.53;;;3.70;;
1747;SDS011;871;47.034;15.394;2023-04-02T06:55:48;39.20;;;3.90;;
1747;SDS011;871;47.034;15.394;2023-04-02T06:58:16;40.37;;;4.20;;
1747;SDS011;871;47.034;15.394;2023-04-02T07:00:43;43.07;;;4.00;;
1747;SDS011;871;47.034;15.394;2023-04-02T07:03:14;39.00;;;3.80;;
1747;SDS011;871;47.034;15.394;2023-04-02T07:05:41;39.47;;;4.43;;
1747;SDS011;871;47.034;15.394;2023-04-02T07:08:07;39.60;;;3.90;;
1747;SDS011;871;47.034;15.394;2023-04-02T07:10:33;39.93;;;4.10;;
1747;SDS011;871;47.034;15.394;2023-04-02T07:13:00;42.80;;;4.03;;
1747;SDS011;871;47.034;15.394;2023-04-02T07:15:26;41.07;;;4.33;;
1747;SDS011;871;47.034;15.394;2023-04-02T07:17:53;42.00;;;4.10;;
1747;SDS011;871;47.034;15.394;2023-04-02T07:22:50;41.07;;;5.07;;
1747;SDS011;871;47.034;15.394;2023-04-02T07:25:16;41.43;;;5.40;;
1747;SDS011;871;47.034;15.394;2023-04-02T07:27:42;43.60;;;5.17;;
1747;SDS011;871;47.034;15.394;2023-04-02T07:30:08;44.10;;;5.90;;
1747;SDS011;871;47.034;15.394;2023-04-02T07:32:34;47.23;;;6.00;;
1747;SDS011;871;47.034;15.394;2023-04-02T07:35:01;50.60;;;6.20;;
1747;SDS011;871;47.034;15.394;2023-04-02T07:37:27;48.97;;;5.80;;
1747;SDS011;871;47.034;15.394;2023-04-02T07:39:53;41.57;;;5.20;;
1747;SDS011;871;47.034;15.394;2023-04-02T07:42:19;42.33;;;6.00;;
1747;SDS011;871;47.034;15.394;2023-04-02T07:44:45;43.97;;;5.80;;
1747;SDS011;871;47.034;15.394;2023-04-02T07:47:12;44.57;;;5.93;;
1747;SDS011;871;47.034;15.394;2023-04-02T07:49:38;43.13;;;5.63;;
1747;SDS011;871;47.034;15.394;2023-04-02T07:52:04;40.07;;;4.73;;
1747;SDS011;871;47.034;15.394;2023-04-02T07:54:30;42.70;;;4.70;;
1747;SDS011;871;47.034;15.394;2023-04-02T07:56:56;40.50;;;4.20;;
1747;SDS011;871;47.034;15.394;2023-04-02T07:59:23;42.13;;;5.50;;
1747;SDS011;871;47.034;15.394;2023-04-02T08:01:50;42.23;;;4.63;;
1747;SDS011;871;47.034;15.394;2023-04-02T08:04:17;40.17;;;4.33;;
1747;SDS011;871;47.034;15.394;2023-04-02T08:06:44;40.20;;;4.83;;
1747;SDS011;871;47.034;15.394;2023-04-02T08:09:11;40.97;;;4.33;;
1747;SDS011;871;47.034;15.394;2023-04-02T08:11:37;45.23;;;5.67;;
1747;SDS011;871;47.034;15.394;2023-04-02T08:14:06;42.30;;;5.10;;
1747;SDS011;871;47.034;15.394;2023-04-02T08:16:48;40.30;;;5.30;;
1747;SDS011;871;47.034;15.394;2023-04-02T08:19:15;41.23;;;4.40;;
1747;SDS011;871;47.034;15.394;2023-04-02T08:21:41;41.03;;;5.20;;
1747;SDS011;871;47.034;15.394;2023-04-02T08:24:07;43.93;;;5.27;;
1747;SDS011;871;47.034;15.394;2023-04-02T08:26:34;40.63;;;4.57;;
1747;SDS011;871;47.034;15.394;2023-04-02T08:29:00;42.87;;;5.37;;
1747;SDS011;871;47.034;15.394;2023-04-02T08:31:26;42.63;;;4.70;;
1747;SDS011;871;47.034;15.394;2023-04-02T08:33:54;41.27;;;4.50;;
1747;SDS011;871;47.034;15.394;2023-04-02T08:36:24;42.07;;;4.90;;
1747;SDS011;871;47.034;15.394;2023-04-02T08:38:51;41.60;;;4.93;;
1747;SDS011;871;47.034;15.394;2023-04-02T08:41:21;41.53;;;4.60;;
1747;SDS011;871;47.034;15.394;2023-04-02T08:46:39;42.37;;;4.83;;
1747;SDS011;871;47.034;15.394;2023-04-02T08:49:20;40.70;;;4.30;;
1747;SDS011;871;47.034;15.394;2023-04-02T08:51:48;42.97;;;5.13;;
1747;SDS011;871;47.034;15.394;2023-04-02T08:54:23;40.30;;;4.13;;
1747;SDS011;871;47.034;15.394;2023-04-02T08:59:35;38.57;;;3.17;;
1747;SDS011;871;47.034;15.394;2023-04-02T09:02:05;38.70;;;3.13;;
1747;SDS011;871;47.034;15.394;2023-04-02T09:04:37;40.43;;;4.37;;
1747;SDS011;871;47.034;15.394;2023-04-02T09:07:08;39.13;;;3.47;;
1747;SDS011;871;47.034;15.394;2023-04-02T09:09:39;39.93;;;3.00;;
1747;SDS011;871;47.034;15.394;2023-04-02T09:12:05;39.30;;;2.97;;
1747;SDS011;871;47.034;15.394;2023-04-02T09:17:11;39.60;;;3.20;;
1747;SDS011;871;47.034;15.394;2023-04-02T09:19:42;39.13;;;3.07;;
1747;SDS011;871;47.034;15.394;2023-04-02T09:24:38;40.07;;;3.20;;
1747;SDS011;871;47.034;15.394;2023-04-02T09:27:11;38.67;;;3.23;;
1747;SDS011;871;47.034;15.394;2023-04-02T09:29:45;38.50;;;2.63;;
1747;SDS011;871;47.034;15.394;2023-04-02T09:35:06;39.50;;;2.30;;
1747;SDS011;871;47.034;15.394;2023-04-02T09:37:34;38.30;;;2.73;;
1747;SDS011;871;47.034;15.394;2023-04-02T09:42:46;38.20;;;2.40;;
1747;SDS011;871;47.034;15.394;2023-04-02T09:47:38;38.70;;;1.93;;
1747;SDS011;871;47.034;15.394;2023-04-02T09:52:48;37.67;;;1.67;;
1747;SDS011;871;47.034;15.394;2023-04-02T09:57:43;38.03;;;1.73;;
1747;SDS011;871;47.034;15.394;2023-04-02T10:00:15;38.20;;;1.93;;
1747;SDS011;871;47.034;15.394;2023-04-02T10:02:41;37.60;;;1.93;;
1747;SDS011;871;47.034;15.394;2023-04-02T10:05:15;37.07;;;1.43;;
1747;SDS011;871;47.034;15.394;2023-04-02T10:07:43;36.93;;;1.30;;
1747;SDS011;871;47.034;15.394;2023-04-02T10:10:29;37.10;;;1.60;;
1747;SDS011;871;47.034;15.394;2023-04-02T10:12:58;38.30;;;1.50;;
1747;SDS011;871;47.034;15.394;2023-04-02T10:15:30;37.60;;;1.80;;
1747;SDS011;871;47.034;15.394;2023-04-02T10:20:42;37.63;;;2.10;;
1747;SDS011;871;47.034;15.394;2023-04-02T10:23:14;37.70;;;2.00;;
1747;SDS011;871;47.034;15.394;2023-04-02T10:25:41;38.20;;;2.27;;
1747;SDS011;871;47.034;15.394;2023-04-02T10:31:06;37.17;;;1.33;;
1747;SDS011;871;47.034;15.394;2023-04-02T10:33:36;37.13;;;1.40;;
1747;SDS011;871;47.034;15.394;2023-04-02T10:36:10;37.40;;;1.67;;
1747;SDS011;871;47.034;15.394;2023-04-02T10:43:56;38.40;;;1.60;;
1747;SDS011;871;47.034;15.394;2023-04-02T10:56:45;37.77;;;1.60;;
1747;SDS011;871;47.034;15.394;2023-04-02T10:59:16;38.20;;;1.70;;
1747;SDS011;871;47.034;15.394;2023-04-02T11:01:43;38.90;;;1.50;;
1747;SDS011;871;47.034;15.394;2023-04-02T11:04:18;38.00;;;1.40;;
1747;SDS011;871;47.034;15.394;2023-04-02T11:06:54;38.60;;;1.90;;
1747;SDS011;871;47.034;15.394;2023-04-02T11:09:23;38.20;;;2.00;;
1747;SDS011;871;47.034;15.394;2023-04-02T11:11:52;37.50;;;1.70;;
1747;SDS011;871;47.034;15.394;2023-04-02T11:14:24;38.40;;;1.63;;
1747;SDS011;871;47.034;15.394;2023-04-02T11:16:51;38.17;;;1.60;;
1747;SDS011;871;47.034;15.394;2023-04-02T11:19:21;38.00;;;1.80;;
1747;SDS011;871;47.034;15.394;2023-04-02T11:24:22;37.63;;;1.77;;
1747;SDS011;871;47.034;15.394;2023-04-02T11:26:48;40.10;;;1.67;;
1747;SDS011;871;47.034;15.394;2023-04-02T11:31:41;38.97;;;1.83;;
1747;SDS011;871;47.034;15.394;2023-04-02T11:34:11;37.60;;;1.53;;
1747;SDS011;871;47.034;15.394;2023-04-02T11:42:04;38.70;;;1.77;;
1747;SDS011;871;47.034;15.394;2023-04-02T11:44:30;37.97;;;1.73;;
1747;SDS011;871;47.034;15.394;2023-04-02T12:00:29;37.57;;;1.47;;
1747;SDS011;871;47.034;15.394;2023-04-02T12:06:07;38.10;;;1.83;;
1747;SDS011;871;47.034;15.394;2023-04-02T12:11:15;37.67;;;1.37;;
1747;SDS011;871;47.034;15.394;2023-04-02T12:16:08;37.43;;;1.20;;
1747;SDS011;871;47.034;15.394;2023-04-02T12:18:35;39.30;;;1.70;;
1747;SDS011;871;47.034;15.394;2023-04-02T12:21:06;37.87;;;1.67;;
1747;SDS011;871;47.034;15.394;2023-04-02T12:23:34;38.00;;;1.63;;
1747;SDS011;871;47.034;15.394;2023-04-02T12:26:03;37.40;;;1.30;;
1747;SDS011;871;47.034;15.394;2023-04-02T12:28:33;37.90;;;1.50;;
1747;SDS011;871;47.034;15.394;2023-04-02T12:33:40;37.47;;;1.30;;
1747;SDS011;871;47.034;15.394;2023-04-02T12:36:18;37.50;;;1.43;;
1747;SDS011;871;47.034;15.394;2023-04-02T12:41:44;37.50;;;1.27;;
1747;SDS011;871;47.034;15.394;2023-04-02T12:44:11;37.13;;;1.30;;
1747;SDS011;871;47.034;15.394;2023-04-02T12:46:40;36.77;;;1.00;;
1747;SDS011;871;47.034;15.394;2023-04-02T12:49:08;37.07;;;1.00;;
1747;SDS011;871;47.034;15.394;2023-04-02T12:51:37;36.93;;;1.00;;
1747;SDS011;871;47.034;15.394;2023-04-02T12:54:03;37.03;;;1.03;;
1747;SDS011;871;47.034;15.394;2023-04-02T12:56:30;37.97;;;1.20;;
1747;SDS011;871;47.034;15.394;2023-04-02T12:58:57;37.10;;;1.17;;
1747;SDS011;871;47.034;15.394;2023-04-02T13:01:27;37.10;;;1.10;;
1747;SDS011;871;47.034;15.394;2023-04-02T13:04:09;37.10;;;1.20;;
1747;SDS011;871;47.034;15.394;2023-04-02T13:06:39;37.40;;;1.33;;
1747;SDS011;871;47.034;15.394;2023-04-02T13:09:25;36.87;;;1.07;;
1747;SDS011;871;47.034;15.394;2023-04-02T13:11:52;37.07;;;1.00;;
1747;SDS011;871;47.034;15.394;2023-04-02T13:14:19;37.17;;;1.20;;
1747;SDS011;871;47.034;15.394;2023-04-02T13:16:46;36.97;;;1.27;;
1747;SDS011;871;47.034;15.394;2023-04-02T13:21:42;36.90;;;1.33;;
1747;SDS011;871;47.034;15.394;2023-04-02T13:26:43;37.10;;;1.30;;
1747;SDS011;871;47.034;15.394;2023-04-02T13:29:16;36.73;;;1.10;;
1747;SDS011;871;47.034;15.394;2023-04-02T13:31:44;36.50;;;1.07;;
1747;SDS011;871;47.034;15.394;2023-04-02T13:34:10;36.97;;;1.30;;
1747;SDS011;871;47.034;15.394;2023-04-02T13:36:36;37.30;;;1.20;;
1747;SDS011;871;47.034;15.394;2023-04-02T13:39:02;36.57;;;1.10;;
1747;SDS011;871;47.034;15.394;2023-04-02T13:41:29;38.40;;;1.40;;
1747;SDS011;871;47.034;15.394;2023-04-02T13:43:59;37.27;;;1.37;;
1747;SDS011;871;47.034;15.394;2023-04-02T13:46:27;37.77;;;1.27;;
1747;SDS011;871;47.034;15.394;2023-04-02T13:48:54;36.70;;;1.20;;
1747;SDS011;871;47.034;15.394;2023-04-02T13:51:32;36.70;;;1.27;;
1747;SDS011;871;47.034;15.394;2023-04-02T13:53:59;37.07;;;1.40;;
1747;SDS011;871;47.034;15.394;2023-04-02T13:56:25;37.10;;;1.20;;
1747;SDS011;871;47.034;15.394;2023-04-02T13:58:51;37.27;;;1.20;;
1747;SDS011;871;47.034;15.394;2023-04-02T14:01:17;36.87;;;1.00;;
1747;SDS011;871;47.034;15.394;2023-04-02T14:03:44;37.17;;;1.13;;
1747;SDS011;871;47.034;15.394;2023-04-02T14:16:21;37.07;;;1.10;;
1747;SDS011;871;47.034;15.394;2023-04-02T14:23:52;37.77;;;1.23;;
1747;SDS011;871;47.034;15.394;2023-04-02T14:31:34;37.47;;;1.27;;
1747;SDS011;871;47.034;15.394;2023-04-02T14:34:10;37.17;;;1.20;;
1747;SDS011;871;47.034;15.394;2023-04-02T14:36:52;37.27;;;1.30;;
1747;SDS011;871;47.034;15.394;2023-04-02T14:42:13;37.07;;;1.10;;
1747;SDS011;871;47.034;15.394;2023-04-02T14:44:46;40.90;;;1.00;;
1747;SDS011;871;47.034;15.394;2023-04-02T14:47:18;36.97;;;1.20;;
1747;SDS011;871;47.034;15.394;2023-04-02T14:49:47;36.83;;;0.90;;
1747;SDS011;871;47.034;15.394;2023-04-02T14:52:16;36.70;;;1.10;;
1747;SDS011;871;47.034;15.394;2023-04-02T14:54:51;36.73;;;1.10;;
1747;SDS011;871;47.034;15.394;2023-04-02T14:57:22;36.77;;;0.80;;
1747;SDS011;871;47.034;15.394;2023-04-02T15:00:07;36.87;;;1.20;;
1747;SDS011;871;47.034;15.394;2023-04-02T15:02:51;36.77;;;1.10;;
1747;SDS011;871;47.034;15.394;2023-04-02T15:05:41;37.07;;;1.17;;
1747;SDS011;871;47.034;15.394;2023-04-02T15:08:14;36.70;;;1.10;;
1747;SDS011;871;47.034;15.394;2023-04-02T15:13:10;36.63;;;1.03;;
1747;SDS011;871;47.034;15.394;2023-04-02T15:18:13;36.67;;;1.10;;
1747;SDS011;871;47.034;15.394;2023-04-02T15:20:46;36.27;;;1.00;;
1747;SDS011;871;47.034;15.394;2023-04-02T15:23:20;36.67;;;1.00;;
1747;SDS011;871;47.034;15.394;2023-04-02T15:25:54;36.77;;;1.20;;
1747;SDS011;871;47.034;15.394;2023-04-02T15:28:29;36.73;;;1.00;;
1747;SDS011;871;47.034;15.394;2023-04-02T15:31:00;36.73;;;1.13;;
1747;SDS011;871;47.034;15.394;2023-04-02T15:33:32;36.87;;;1.07;;
1747;SDS011;871;47.034;15.394;2023-04-02T15:38:44;37.20;;;1.00;;
1747;SDS011;871;47.034;15.394;2023-04-02T15:43:53;36.40;;;1.13;;
1747;SDS011;871;47.034;15.394;2023-04-02T15:51:23;36.47;;;1.10;;
1747;SDS011;871;47.034;15.394;2023-04-02T15:54:02;36.60;;;1.07;;
1747;SDS011;871;47.034;15.394;2023-04-02T15:57:08;36.47;;;1.13;;
1747;SDS011;871;47.034;15.394;2023-04-02T16:02:05;36.53;;;1.00;;
1747;SDS011;871;47.034;15.394;2023-04-02T16:04:47;36.77;;;1.10;;
1747;SDS011;871;47.034;15.394;2023-04-02T16:07:40;37.30;;;1.30;;
1747;SDS011;871;47.034;15.394;2023-04-02T16:10:21;36.37;;;0.90;;
1747;SDS011;871;47.034;15.394;2023-04-02T16:12:49;36.77;;;1.03;;
1747;SDS011;871;47.034;15.394;2023-04-02T16:15:17;36.60;;;1.00;;
1747;SDS011;871;47.034;15.394;2023-04-02T16:18:07;36.90;;;1.30;;
1747;SDS011;871;47.034;15.394;2023-04-02T16:20:40;36.40;;;1.07;;
1747;SDS011;871;47.034;15.394;2023-04-02T16:23:14;36.67;;;1.10;;
1747;SDS011;871;47.034;15.394;2023-04-02T16:28:35;36.83;;;1.37;;
1747;SDS011;871;47.034;15.394;2023-04-02T16:32:06;36.90;;;1.30;;
1747;SDS011;871;47.034;15.394;2023-04-02T16:34:11;36.70;;;1.20;;
1747;SDS011;871;47.034;15.394;2023-04-02T16:39:32;36.17;;;1.00;;
1747;SDS011;871;47.034;15.394;2023-04-02T16:44:35;36.37;;;1.07;;
1747;SDS011;871;47.034;15.394;2023-04-02T16:47:11;36.37;;;1.17;;
1747;SDS011;871;47.034;15.394;2023-04-02T16:49:45;36.03;;;0.93;;
1747;SDS011;871;47.034;15.394;2023-04-02T16:54:49;36.30;;;1.03;;
1747;SDS011;871;47.034;15.394;2023-04-02T16:57:22;36.17;;;1.00;;
1747;SDS011;871;47.034;15.394;2023-04-02T17:00:00;36.50;;;1.13;;
1747;SDS011;871;47.034;15.394;2023-04-02T17:02:45;36.40;;;1.00;;
1747;SDS011;871;47.034;15.394;2023-04-02T17:05:18;37.50;;;1.30;;
1747;SDS011;871;47.034;15.394;2023-04-02T17:08:03;36.60;;;1.30;;
1747;SDS011;871;47.034;15.394;2023-04-02T17:15:38;36.70;;;1.10;;
1747;SDS011;871;47.034;15.394;2023-04-02T17:18:08;35.67;;;1.00;;
1747;SDS011;871;47.034;15.394;2023-04-02T17:20:36;37.17;;;1.40;;
1747;SDS011;871;47.034;15.394;2023-04-02T17:23:03;37.00;;;1.40;;
1747;SDS011;871;47.034;15.394;2023-04-02T17:25:31;36.30;;;1.30;;
1747;SDS011;871;47.034;15.394;2023-04-02T17:27:58;36.17;;;1.00;;
1747;SDS011;871;47.034;15.394;2023-04-02T17:32:55;36.50;;;1.10;;
1747;SDS011;871;47.034;15.394;2023-04-02T17:40:52;36.60;;;1.30;;
1747;SDS011;871;47.034;15.394;2023-04-02T17:46:09;36.47;;;1.10;;
1747;SDS011;871;47.034;15.394;2023-04-02T17:48:43;35.57;;;1.20;;
1747;SDS011;871;47.034;15.394;2023-04-02T17:51:57;35.80;;;1.20;;
1747;SDS011;871;47.034;15.394;2023-04-02T17:56:29;37.50;;;1.40;;
1747;SDS011;871;47.034;15.394;2023-04-02T18:04:03;36.40;;;1.20;;
1747;SDS011;871;47.034;15.394;2023-04-02T18:09:13;36.50;;;1.23;;
1747;SDS011;871;47.034;15.394;2023-04-02T18:14:33;36.67;;;1.03;;
1747;SDS011;871;47.034;15.394;2023-04-02T18:17:07;37.10;;;1.20;;
1747;SDS011;871;47.034;15.394;2023-04-02T18:19:49;36.40;;;1.10;;
1747;SDS011;871;47.034;15.394;2023-04-02T18:22:25;36.40;;;1.27;;
1747;SDS011;871;47.034;15.394;2023-04-02T18:30:14;36.00;;;1.10;;
1747;SDS011;871;47.034;15.394;2023-04-02T18:35:34;36.20;;;1.03;;
1747;SDS011;871;47.034;15.394;2023-04-02T18:38:18;35.63;;;1.00;;
1747;SDS011;871;47.034;15.394;2023-04-02T18:43:36;39.63;;;0.93;;
1747;SDS011;871;47.034;15.394;2023-04-02T18:52:03;35.93;;;0.90;;
1747;SDS011;871;47.034;15.394;2023-04-02T18:54:35;35.83;;;1.00;;
1747;SDS011;871;47.034;15.394;2023-04-02T18:57:17;35.93;;;1.27;;
1747;SDS011;871;47.034;15.394;2023-04-02T18:59:50;36.07;;;1.13;;
1747;SDS011;871;47.034;15.394;2023-04-02T19:04:50;35.73;;;1.10;;
1747;SDS011;871;47.034;15.394;2023-04-02T19:07:18;35.83;;;1.03;;
1747;SDS011;871;47.034;15.394;2023-04-02T19:09:47;36.20;;;0.90;;
1747;SDS011;871;47.034;15.394;2023-04-02T19:12:17;36.13;;;1.17;;
1747;SDS011;871;47.034;15.394;2023-04-02T19:14:45;36.40;;;1.00;;
1747;SDS011;871;47.034;15.394;2023-04-02T19:19:44;35.73;;;1.10;;
1747;SDS011;871;47.034;15.394;2023-04-02T19:35:57;36.20;;;1.20;;
1747;SDS011;871;47.034;15.394;2023-04-02T19:41:24;36.30;;;1.20;;
1747;SDS011;871;47.034;15.394;2023-04-02T19:43:52;36.50;;;1.17;;
1747;SDS011;871;47.034;15.394;2023-04-02T19:46:20;36.47;;;1.10;;
1747;SDS011;871;47.034;15.394;2023-04-02T19:51:13;36.07;;;1.40;;
1747;SDS011;871;47.034;15.394;2023-04-02T19:53:40;35.97;;;0.80;;
1747;SDS011;871;47.034;15.394;2023-04-02T19:56:06;35.67;;;0.90;;
1747;SDS011;871;47.034;15.394;2023-04-02T19:58:33;36.10;;;1.07;;
1747;SDS011;871;47.034;15.394;2023-04-02T20:01:02;35.97;;;1.40;;
1747;SDS011;871;47.034;15.394;2023-04-02T20:03:30;36.67;;;1.40;;
1747;SDS011;871;47.034;15.394;2023-04-02T20:05:58;35.93;;;1.30;;
1747;SDS011;871;47.034;15.394;2023-04-02T20:08:25;35.93;;;1.00;;
1747;SDS011;871;47.034;15.394;2023-04-02T20:10:51;36.70;;;1.33;;
1747;SDS011;871;47.034;15.394;2023-04-02T20:13:19;36.00;;;1.00;;
1747;SDS011;871;47.034;15.394;2023-04-02T20:15:45;36.10;;;0.97;;
1747;SDS011;871;47.034;15.394;2023-04-02T20:18:12;36.03;;;1.10;;
1747;SDS011;871;47.034;15.394;2023-04-02T20:20:38;36.03;;;1.10;;
1747;SDS011;871;47.034;15.394;2023-04-02T20:23:04;36.20;;;1.13;;
1747;SDS011;871;47.034;15.394;2023-04-02T20:25:31;36.10;;;1.10;;
1747;SDS011;871;47.034;15.394;2023-04-02T20:27:57;35.90;;;0.90;;
1747;SDS011;871;47.034;15.394;2023-04-02T20:30:25;36.30;;;1.40;;
1747;SDS011;871;47.034;15.394;2023-04-02T20:32:51;36.40;;;1.37;;
1747;SDS011;871;47.034;15.394;2023-04-02T20:35:19;36.30;;;1.20;;
1747;SDS011;871;47.034;15.394;2023-04-02T20:37:45;36.07;;;1.00;;
1747;SDS011;871;47.034;15.394;2023-04-02T20:40:12;36.27;;;1.53;;
1747;SDS011;871;47.034;15.394;2023-04-02T20:42:38;36.50;;;1.30;;
1747;SDS011;871;47.034;15.394;2023-04-02T20:45:04;35.97;;;1.00;;
1747;SDS011;871;47.034;15.394;2023-04-02T20:47:32;36.30;;;1.27;;
1747;SDS011;871;47.034;15.394;2023-04-02T20:49:58;36.60;;;1.50;;
1747;SDS011;871;47.034;15.394;2023-04-02T20:52:25;37.90;;;2.30;;
1747;SDS011;871;47.034;15.394;2023-04-02T20:54:54;37.53;;;2.30;;
1747;SDS011;871;47.034;15.394;2023-04-02T20:57:20;37.93;;;2.53;;
